Time;durP1;ratioP1;P1;durP2;ratioP2;P2;SDS_P1;SDS_P2;PMS_P1;PMS_P2;Temp;Humidity;BMP_temperature;BMP_pressure;BME280_temperature;BME280_humidity;BME280_pressure;Samples;Min_cycle;Max_cycle;Signal;HPM_P1;HPM_P2
2022/06/21 00:02:09;;;;;;;;;;;25.30;63.70;;;;;;5073391;28;20023;-69
2022/06/21 00:04:36;;;;;;;;;;;25.40;62.30;;;;;;5073593;28;20007;-69
2022/06/21 00:07:03;;;;;;;;;;;25.40;61.80;;;;;;5086683;28;19946;-71
2022/06/21 00:09:28;;;;;;;;;;;25.50;61.20;;;;;;5074178;28;20384;-68
2022/06/21 00:11:54;;;;;;;;;;;25.60;60.70;;;;;;5073451;28;19916;-69
2022/06/21 00:14:19;;;;;;;;;;;25.60;60.20;;;;;;5073950;28;20264;-71
2022/06/21 00:16:45;;;;;;;;;;;25.70;59.90;;;;;;5073723;28;19926;-69
2022/06/21 00:19:15;;;;;;;;;;;25.80;59.60;;;;;;5073280;28;19924;-70
2022/06/21 00:21:41;;;;;;;;;;;25.70;59.10;;;;;;5073294;28;20372;-72
2022/06/21 00:24:07;;;;;;;;;;;25.70;59.00;;;;;;5073262;28;19966;-72
2022/06/21 00:26:32;;;;;;;;;;;25.60;59.10;;;;;;5073075;28;19908;-72
2022/06/21 00:28:58;;;;;;;;;;;25.60;59.10;;;;;;5072972;28;19965;-72
2022/06/21 00:31:26;;;;;;;;;;;25.60;58.90;;;;;;5072891;28;19912;-69
2022/06/21 00:33:51;;;;;;;;;;;25.70;58.80;;;;;;5073379;28;19931;-62
2022/06/21 00:36:23;;;;;;;;;;;25.60;58.60;;;;;;5072934;28;20360;-70
2022/06/21 00:38:50;;;;;;;;;;;25.60;58.40;;;;;;5072627;28;19986;-72
2022/06/21 00:41:17;;;;;;;;;;;25.60;58.40;;;;;;5072844;28;20033;-64
2022/06/21 00:43:46;;;;;;;;;;;25.60;58.30;;;;;;5072814;28;19915;-71
2022/06/21 00:46:25;;;;;;;;;;;25.70;58.30;;;;;;5072796;28;20356;-73
2022/06/21 00:48:51;;;;;;;;;;;25.70;58.10;;;;;;5072480;28;19947;-65
2022/06/21 00:51:23;;;;;;;;;;;25.70;58.30;;;;;;5073049;28;19908;-69
2022/06/21 00:53:50;;;;;;;;;;;25.60;58.20;;;;;;5072717;28;19909;-68
2022/06/21 00:56:16;;;;;;;;;;;25.50;58.40;;;;;;5072181;28;19912;-71
2022/06/21 00:58:41;;;;;;;;;;;25.50;58.50;;;;;;5072397;28;20061;-71
2022/06/21 01:01:13;;;;;;;;;;;25.40;58.60;;;;;;5072422;28;19920;-69
2022/06/21 01:03:41;;;;;;;;;;;25.40;58.60;;;;;;5071854;28;19917;-66
2022/06/21 01:06:12;;;;;;;;;;;25.40;58.80;;;;;;5078174;28;19954;-73
2022/06/21 01:08:40;;;;;;;;;;;25.50;59.10;;;;;;5080337;28;20272;-73
2022/06/21 01:11:27;;;;;;;;;;;25.50;58.40;;;;;;5072225;28;20330;-73
2022/06/21 01:13:54;;;;;;;;;;;25.50;58.10;;;;;;5072323;28;19962;-73
2022/06/21 01:16:20;;;;;;;;;;;25.40;58.10;;;;;;5072347;28;19909;-74
2022/06/21 01:18:46;;;;;;;;;;;25.40;57.90;;;;;;5072115;28;19916;-71
2022/06/21 01:21:13;;;;;;;;;;;25.40;57.70;;;;;;5072200;28;19954;-72
2022/06/21 01:23:42;;;;;;;;;;;25.50;57.80;;;;;;5072149;28;20236;-72
2022/06/21 01:26:26;;;;;;;;;;;25.50;57.70;;;;;;5072330;28;19908;-63
2022/06/21 01:28:52;;;;;;;;;;;25.50;57.60;;;;;;5072247;28;19909;-72
2022/06/21 01:31:18;;;;;;;;;;;25.50;57.60;;;;;;5072643;28;20418;-71
2022/06/21 01:33:44;;;;;;;;;;;25.60;57.40;;;;;;5072170;28;19974;-72
2022/06/21 01:36:13;;;;;;;;;;;25.70;57.90;;;;;;5072020;28;19916;-71
2022/06/21 01:38:45;;;;;;;;;;;25.70;57.10;;;;;;5072001;28;20395;-72
2022/06/21 01:41:15;;;;;;;;;;;25.80;57.30;;;;;;5071794;28;19919;-66
2022/06/21 01:43:43;;;;;;;;;;;25.80;56.90;;;;;;5072304;28;19908;-74
2022/06/21 01:46:12;;;;;;;;;;;25.90;56.90;;;;;;5072025;28;20294;-73
2022/06/21 01:48:43;;;;;;;;;;;25.90;56.50;;;;;;5071840;28;19924;-73
2022/06/21 01:51:11;;;;;;;;;;;25.80;56.50;;;;;;5071979;28;19920;-72
2022/06/21 01:53:37;;;;;;;;;;;25.80;56.00;;;;;;5072002;28;20348;-67
2022/06/21 01:56:06;;;;;;;;;;;25.80;56.10;;;;;;5072059;28;19935;-72
2022/06/21 01:58:33;;;;;;;;;;;25.80;56.30;;;;;;5070496;28;19920;-74
2022/06/21 02:01:06;;;;;;;;;;;25.80;55.70;;;;;;5072081;28;19909;-72
2022/06/21 02:03:34;;;;;;;;;;;25.80;55.50;;;;;;5071870;28;20280;-73
2022/06/21 02:06:02;;;;;;;;;;;25.80;54.60;;;;;;5076542;28;19957;-67
2022/06/21 02:08:33;;;;;;;;;;;25.80;55.30;;;;;;5080850;28;20011;-71
2022/06/21 02:11:00;;;;;;;;;;;25.80;55.70;;;;;;5071747;28;19998;-73
2022/06/21 02:13:30;;;;;;;;;;;25.90;55.50;;;;;;5071770;28;19908;-77
2022/06/21 02:15:55;;;;;;;;;;;26.00;55.20;;;;;;5074885;28;20010;-69
2022/06/21 02:18:22;;;;;;;;;;;26.00;55.10;;;;;;5075509;28;20464;-69
2022/06/21 02:21:03;;;;;;;;;;;26.00;54.30;;;;;;5075620;28;20007;-69
2022/06/21 02:23:29;;;;;;;;;;;26.00;53.60;;;;;;5075629;28;20352;-73
2022/06/21 02:25:55;;;;;;;;;;;26.00;54.20;;;;;;5075324;28;20007;-72
2022/06/21 02:28:21;;;;;;;;;;;25.90;54.30;;;;;;5075417;28;20016;-64
2022/06/21 02:30:48;;;;;;;;;;;25.90;54.10;;;;;;5075458;28;20245;-69
2022/06/21 02:33:16;;;;;;;;;;;25.80;54.60;;;;;;5075327;28;19974;-65
2022/06/21 02:36:02;;;;;;;;;;;25.80;54.60;;;;;;5075319;28;19916;-64
2022/06/21 02:38:37;;;;;;;;;;;25.80;54.70;;;;;;5075042;28;20561;-64
2022/06/21 02:41:09;;;;;;;;;;;25.80;55.10;;;;;;5075164;28;19909;-67
2022/06/21 02:43:40;;;;;;;;;;;25.80;55.00;;;;;;5075301;28;19964;-72
2022/06/21 02:46:08;;;;;;;;;;;25.80;54.60;;;;;;5075060;28;19954;-65
2022/06/21 02:48:36;;;;;;;;;;;25.70;54.50;;;;;;5074749;28;19933;-72
2022/06/21 02:51:05;;;;;;;;;;;25.60;54.80;;;;;;5075004;28;19913;-68
2022/06/21 02:53:33;;;;;;;;;;;25.50;55.20;;;;;;5074774;28;19971;-63
2022/06/21 02:56:02;;;;;;;;;;;25.40;55.70;;;;;;5074961;28;19966;-68
2022/06/21 02:58:27;;;;;;;;;;;25.30;56.00;;;;;;5074705;28;19999;-72
2022/06/21 03:00:53;;;;;;;;;;;25.20;55.90;;;;;;5074836;28;20003;-71
2022/06/21 03:03:22;;;;;;;;;;;25.20;56.20;;;;;;5088853;28;19912;-73
2022/06/21 03:05:48;;;;;;;;;;;25.30;56.00;;;;;;5077786;28;19923;-73
2022/06/21 03:08:14;;;;;;;;;;;25.20;56.10;;;;;;5085933;28;19908;-73
2022/06/21 03:10:42;;;;;;;;;;;25.20;55.60;;;;;;5074668;28;19908;-72
2022/06/21 03:13:10;;;;;;;;;;;25.30;55.50;;;;;;5074690;28;20205;-73
2022/06/21 03:15:36;;;;;;;;;;;25.20;55.80;;;;;;5074573;28;19908;-72
2022/06/21 03:18:05;;;;;;;;;;;25.20;55.20;;;;;;5074283;28;19916;-73
2022/06/21 03:20:32;;;;;;;;;;;25.30;55.70;;;;;;5074493;28;19912;-72
2022/06/21 03:22:58;;;;;;;;;;;25.30;55.20;;;;;;5074611;28;19915;-72
2022/06/21 03:25:27;;;;;;;;;;;25.30;54.70;;;;;;5074745;28;19913;-73
2022/06/21 03:27:53;;;;;;;;;;;25.40;54.90;;;;;;5073751;28;19908;-71
2022/06/21 03:30:20;;;;;;;;;;;25.50;54.30;;;;;;5074456;28;19930;-72
2022/06/21 03:32:48;;;;;;;;;;;25.50;53.70;;;;;;5074386;28;19909;-72
2022/06/21 03:35:14;;;;;;;;;;;25.50;54.00;;;;;;5074305;28;20432;-72
2022/06/21 03:37:41;;;;;;;;;;;25.50;54.10;;;;;;5074139;28;19959;-72
2022/06/21 03:42:54;;;;;;;;;;;25.40;54.40;;;;;;5074020;28;20418;-67
2022/06/21 03:45:25;;;;;;;;;;;25.30;54.60;;;;;;5074168;28;19908;-73
2022/06/21 03:47:54;;;;;;;;;;;25.10;55.40;;;;;;5074034;28;19927;-70
2022/06/21 03:50:22;;;;;;;;;;;25.00;55.60;;;;;;5074086;28;20343;-74
2022/06/21 03:53:06;;;;;;;;;;;24.90;56.20;;;;;;5074066;28;20376;-72
2022/06/21 03:55:46;;;;;;;;;;;24.90;56.40;;;;;;5073993;28;20314;-70
2022/06/21 03:58:12;;;;;;;;;;;24.90;56.90;;;;;;5073681;28;19970;-73
2022/06/21 04:00:44;;;;;;;;;;;24.80;56.70;;;;;;5074022;28;19917;-70
2022/06/21 04:03:14;;;;;;;;;;;24.90;56.60;;;;;;5073937;28;20006;-71
2022/06/21 04:05:44;;;;;;;;;;;24.70;57.30;;;;;;5075454;28;19909;-72
2022/06/21 04:08:19;;;;;;;;;;;24.80;57.30;;;;;;5085504;28;19908;-74
2022/06/21 04:11:06;;;;;;;;;;;24.90;57.50;;;;;;5073631;28;20026;-72
2022/06/21 04:13:37;;;;;;;;;;;24.90;57.60;;;;;;5073598;28;19958;-72
2022/06/21 04:16:26;;;;;;;;;;;24.80;57.20;;;;;;5073449;28;20315;-73
2022/06/21 04:18:55;;;;;;;;;;;24.90;57.00;;;;;;5070170;28;19986;-71
2022/06/21 04:21:24;;;;;;;;;;;24.90;57.50;;;;;;5073282;28;19912;-72
2022/06/21 04:23:59;;;;;;;;;;;25.10;57.20;;;;;;5073426;28;20375;-71
2022/06/21 04:26:30;;;;;;;;;;;25.20;56.90;;;;;;5073342;28;20377;-73
2022/06/21 04:29:05;;;;;;;;;;;25.20;56.60;;;;;;5073178;28;19908;-69
2022/06/21 04:31:33;;;;;;;;;;;25.40;56.40;;;;;;5073144;28;20322;-72
2022/06/21 04:34:05;;;;;;;;;;;25.40;56.20;;;;;;5073240;28;19908;-72
2022/06/21 04:36:35;;;;;;;;;;;25.50;56.20;;;;;;5073286;28;19918;-71
2022/06/21 04:39:10;;;;;;;;;;;25.50;56.00;;;;;;5072193;28;19916;-72
2022/06/21 04:41:36;;;;;;;;;;;25.40;56.10;;;;;;5073182;28;19908;-72
2022/06/21 04:44:22;;;;;;;;;;;25.50;55.90;;;;;;5073177;28;19970;-63
2022/06/21 04:46:50;;;;;;;;;;;25.60;55.60;;;;;;5072676;28;19915;-67
2022/06/21 04:49:16;;;;;;;;;;;25.70;55.10;;;;;;5072789;28;19924;-72
2022/06/21 04:51:45;;;;;;;;;;;25.80;54.80;;;;;;5073246;28;19923;-69
2022/06/21 04:54:12;;;;;;;;;;;25.80;53.60;;;;;;5072972;28;20379;-73
2022/06/21 04:56:38;;;;;;;;;;;25.90;53.50;;;;;;5072940;28;19909;-65
2022/06/21 04:59:08;;;;;;;;;;;25.90;53.30;;;;;;5072743;28;19939;-72
2022/06/21 05:01:34;;;;;;;;;;;25.70;53.70;;;;;;5072457;28;19908;-70
2022/06/21 05:04:23;;;;;;;;;;;25.60;53.80;;;;;;5072743;28;20314;-73
2022/06/21 05:06:49;;;;;;;;;;;25.50;54.60;;;;;;5080990;28;19926;-71
2022/06/21 05:09:18;;;;;;;;;;;25.40;55.30;;;;;;5075077;28;19951;-67
2022/06/21 05:11:44;;;;;;;;;;;25.60;55.10;;;;;;5072878;28;19998;-72
2022/06/21 05:14:21;;;;;;;;;;;25.70;54.90;;;;;;5072710;28;20031;-73
2022/06/21 05:16:47;;;;;;;;;;;25.60;55.80;;;;;;5071384;28;19912;-69
2022/06/21 05:19:19;;;;;;;;;;;25.50;56.30;;;;;;5072407;28;19920;-71
2022/06/21 05:21:47;;;;;;;;;;;25.40;56.10;;;;;;5072626;28;19912;-71
2022/06/21 05:24:13;;;;;;;;;;;25.60;56.50;;;;;;5072709;28;19908;-69
2022/06/21 05:26:58;;;;;;;;;;;25.70;56.40;;;;;;5072368;28;19936;-66
2022/06/21 05:29:28;;;;;;;;;;;25.60;56.20;;;;;;5072250;28;20058;-69
2022/06/21 05:31:56;;;;;;;;;;;25.40;56.90;;;;;;5072570;28;20352;-67
2022/06/21 05:34:29;;;;;;;;;;;25.30;58.10;;;;;;5086605;28;19977;-66
2022/06/21 05:37:01;;;;;;;;;;;25.60;58.10;;;;;;5072467;28;19969;-67
2022/06/21 05:39:39;;;;;;;;;;;26.10;57.10;;;;;;5072216;28;19916;-68
2022/06/21 05:42:06;;;;;;;;;;;26.70;56.00;;;;;;5072311;28;19913;-68
2022/06/21 05:44:36;;;;;;;;;;;27.20;55.00;;;;;;5072377;28;20355;-67
2022/06/21 05:47:06;;;;;;;;;;;27.50;53.90;;;;;;5071981;28;19909;-67
2022/06/21 05:49:32;;;;;;;;;;;27.90;53.10;;;;;;5071982;28;19982;-66
2022/06/21 05:52:00;;;;;;;;;;;28.10;52.00;;;;;;5072271;28;20332;-71
2022/06/21 05:54:30;;;;;;;;;;;28.40;49.40;;;;;;5072415;28;20351;-69
2022/06/21 05:56:58;;;;;;;;;;;28.50;48.80;;;;;;5072066;28;19912;-66
2022/06/21 05:59:25;;;;;;;;;;;28.70;48.70;;;;;;5071992;28;19963;-68
2022/06/21 06:02:23;;;;;;;;;;;28.70;48.60;;;;;;5072105;28;19921;-67
2022/06/21 06:05:18;;;;;;;;;;;28.80;47.20;;;;;;5063535;28;19958;-66
2022/06/21 06:07:46;;;;;;;;;;;29.10;47.00;;;;;;5067111;28;19908;-68
2022/06/21 06:10:12;;;;;;;;;;;29.20;45.70;;;;;;5072102;28;19909;-67
2022/06/21 06:12:39;;;;;;;;;;;29.40;44.70;;;;;;5071688;28;19962;-66
2022/06/21 06:15:08;;;;;;;;;;;29.60;44.40;;;;;;5071996;28;19912;-67
2022/06/21 06:17:43;;;;;;;;;;;29.60;44.30;;;;;;5071731;28;20473;-66
2022/06/21 06:20:14;;;;;;;;;;;29.70;43.70;;;;;;5071941;28;19916;-66
2022/06/21 06:22:43;;;;;;;;;;;29.70;43.60;;;;;;5071832;28;19908;-68
2022/06/21 06:25:27;;;;;;;;;;;29.80;43.30;;;;;;5071717;28;19912;-68
2022/06/21 06:28:01;;;;;;;;;;;29.90;43.00;;;;;;5071621;28;19909;-68
2022/06/21 06:30:41;;;;;;;;;;;30.10;42.00;;;;;;5071822;28;19908;-70
2022/06/21 06:33:24;;;;;;;;;;;30.20;41.60;;;;;;5071532;28;20390;-68
2022/06/21 06:35:51;;;;;;;;;;;30.10;41.10;;;;;;5071632;28;19915;-68
2022/06/21 06:38:16;;;;;;;;;;;30.30;41.10;;;;;;5071215;28;19920;-70
2022/06/21 06:40:45;;;;;;;;;;;30.30;41.10;;;;;;5071564;28;20319;-76
2022/06/21 06:43:37;;;;;;;;;;;30.50;41.00;;;;;;5071363;28;19913;-69
2022/06/21 06:46:04;;;;;;;;;;;30.60;41.10;;;;;;5070450;28;19952;-67
2022/06/21 06:48:31;;;;;;;;;;;30.70;40.80;;;;;;5071211;28;20352;-69
2022/06/21 06:51:26;;;;;;;;;;;30.80;41.10;;;;;;5071592;28;20015;-66
2022/06/21 06:53:54;;;;;;;;;;;30.90;41.00;;;;;;5071365;28;19913;-67
2022/06/21 06:56:24;;;;;;;;;;;30.90;41.60;;;;;;5071329;28;19913;-67
2022/06/21 06:58:52;;;;;;;;;;;31.00;40.80;;;;;;5071049;28;20357;-70
2022/06/21 07:01:17;;;;;;;;;;;31.00;41.10;;;;;;5072048;28;19962;-69
2022/06/21 07:03:47;;;;;;;;;;;31.10;41.70;;;;;;5077120;28;20006;-66
2022/06/21 07:06:17;;;;;;;;;;;31.10;40.50;;;;;;5083353;28;19908;-70
2022/06/21 07:08:55;;;;;;;;;;;31.00;40.90;;;;;;5082954;28;19913;-68
2022/06/21 07:11:30;;;;;;;;;;;30.90;40.90;;;;;;5074672;28;19909;-66
2022/06/21 07:13:57;;;;;;;;;;;30.80;41.30;;;;;;5074746;28;20342;-67
2022/06/21 07:16:24;;;;;;;;;;;30.90;41.70;;;;;;5076460;28;19916;-67
2022/06/21 07:18:51;;;;;;;;;;;30.90;42.20;;;;;;5074467;28;20037;-67
2022/06/21 07:21:17;;;;;;;;;;;30.90;42.70;;;;;;5078340;28;19916;-66
2022/06/21 07:23:44;;;;;;;;;;;30.90;43.20;;;;;;5074516;28;19954;-67
2022/06/21 07:26:09;;;;;;;;;;;30.90;43.30;;;;;;5074422;28;19961;-66
2022/06/21 07:28:44;;;;;;;;;;;30.80;43.60;;;;;;5074825;28;19912;-67
2022/06/21 07:31:15;;;;;;;;;;;30.70;44.00;;;;;;5093542;28;19928;-66
2022/06/21 07:33:43;;;;;;;;;;;30.70;44.10;;;;;;5078527;28;19920;-68
2022/06/21 07:36:18;;;;;;;;;;;30.70;44.20;;;;;;5074798;28;19932;-68
2022/06/21 07:38:47;;;;;;;;;;;30.90;44.50;;;;;;5074322;28;20404;-68
2022/06/21 07:41:16;;;;;;;;;;;31.00;44.10;;;;;;5074085;28;19909;-66
2022/06/21 07:43:46;;;;;;;;;;;31.10;44.00;;;;;;5074063;28;20348;-65
2022/06/21 07:46:15;;;;;;;;;;;31.10;44.10;;;;;;5074120;28;19908;-69
2022/06/21 07:48:40;;;;;;;;;;;31.20;44.40;;;;;;5073903;28;20339;-68
2022/06/21 07:51:13;;;;;;;;;;;31.30;44.70;;;;;;5073603;28;19971;-65
2022/06/21 07:53:48;;;;;;;;;;;31.30;44.60;;;;;;5073912;28;19971;-66
2022/06/21 07:56:28;;;;;;;;;;;31.30;45.20;;;;;;5073956;28;20263;-68
2022/06/21 07:58:59;;;;;;;;;;;31.30;45.10;;;;;;5073500;28;20020;-69
2022/06/21 08:07:22;;;;;;;;;;;31.20;45.70;;;;;;5083474;28;19909;-67
2022/06/21 08:09:54;;;;;;;;;;;31.20;46.10;;;;;;5073456;28;19909;-68
2022/06/21 08:12:20;;;;;;;;;;;31.30;46.40;;;;;;5073660;28;19908;-69
2022/06/21 08:14:46;;;;;;;;;;;31.30;46.00;;;;;;5073664;28;20265;-68
2022/06/21 08:17:19;;;;;;;;;;;31.30;46.10;;;;;;5073690;28;20011;-66
2022/06/21 08:19:57;;;;;;;;;;;31.30;46.40;;;;;;5073286;28;20442;-68
2022/06/21 08:22:36;;;;;;;;;;;31.30;46.50;;;;;;5073521;28;19927;-65
2022/06/21 08:25:13;;;;;;;;;;;31.30;46.80;;;;;;5073588;28;19909;-67
2022/06/21 08:27:42;;;;;;;;;;;31.40;46.90;;;;;;5073153;28;19960;-67
2022/06/21 08:30:11;;;;;;;;;;;31.40;46.60;;;;;;5073592;28;19966;-66
2022/06/21 08:32:54;;;;;;;;;;;31.30;46.90;;;;;;5073228;28;20276;-68
2022/06/21 08:35:28;;;;;;;;;;;31.30;47.00;;;;;;5073100;28;19912;-66
2022/06/21 08:38:08;;;;;;;;;;;31.40;47.20;;;;;;5072992;28;19923;-65
2022/06/21 08:40:53;;;;;;;;;;;31.30;45.30;;;;;;5073205;28;19913;-64
2022/06/21 08:43:37;;;;;;;;;;;31.20;46.00;;;;;;5073049;28;19920;-69
2022/06/21 08:46:02;;;;;;;;;;;31.00;46.20;;;;;;5072828;28;20410;-67
2022/06/21 08:48:40;;;;;;;;;;;30.90;46.60;;;;;;5072751;28;20229;-67
2022/06/21 08:51:14;;;;;;;;;;;30.90;46.50;;;;;;5072834;28;19915;-68
2022/06/21 08:53:57;;;;;;;;;;;30.70;46.80;;;;;;5072786;28;19916;-69
2022/06/21 08:56:22;;;;;;;;;;;30.70;47.50;;;;;;5072970;28;19920;-67
2022/06/21 08:59:01;;;;;;;;;;;30.80;48.00;;;;;;5071306;28;19921;-67
2022/06/21 09:01:36;;;;;;;;;;;30.80;47.90;;;;;;5072706;28;19912;-65
2022/06/21 09:04:09;;;;;;;;;;;31.00;47.80;;;;;;5073321;28;20428;-69
2022/06/21 09:06:44;;;;;;;;;;;30.90;47.50;;;;;;5082236;28;19908;-67
2022/06/21 09:09:32;;;;;;;;;;;30.90;47.40;;;;;;5075865;28;19935;-66
2022/06/21 09:12:01;;;;;;;;;;;30.90;47.70;;;;;;5069359;28;19908;-67
2022/06/21 09:14:26;;;;;;;;;;;30.90;47.90;;;;;;5072375;28;19956;-69
2022/06/21 09:16:55;;;;;;;;;;;30.90;48.00;;;;;;5072607;28;19947;-65
2022/06/21 09:19:44;;;;;;;;;;;30.90;48.00;;;;;;5072393;28;19928;-67
2022/06/21 09:22:28;;;;;;;;;;;30.90;48.20;;;;;;5072609;28;19958;-69
2022/06/21 09:25:01;;;;;;;;;;;30.90;48.50;;;;;;5072250;28;19935;-69
2022/06/21 09:27:45;;;;;;;;;;;31.00;48.60;;;;;;5072680;28;19908;-70
2022/06/21 09:30:14;;;;;;;;;;;31.00;48.60;;;;;;5072831;28;20261;-68
2022/06/21 09:32:54;;;;;;;;;;;31.00;48.70;;;;;;5072513;28;19923;-68
2022/06/21 09:35:23;;;;;;;;;;;31.00;48.70;;;;;;5072520;28;19913;-70
2022/06/21 09:37:58;;;;;;;;;;;31.00;48.40;;;;;;5072478;28;19954;-68
2022/06/21 09:40:27;;;;;;;;;;;31.00;48.40;;;;;;5072788;28;20359;-69
2022/06/21 09:42:59;;;;;;;;;;;31.00;49.00;;;;;;5072580;28;19909;-69
2022/06/21 09:45:35;;;;;;;;;;;31.00;48.90;;;;;;5072411;28;20354;-68
2022/06/21 09:48:09;;;;;;;;;;;31.10;49.20;;;;;;5071941;28;19920;-64
2022/06/21 09:50:53;;;;;;;;;;;31.10;49.20;;;;;;5072392;28;20083;-68
2022/06/21 09:53:24;;;;;;;;;;;31.00;49.60;;;;;;5072192;28;20372;-68
2022/06/21 09:56:08;;;;;;;;;;;30.90;50.00;;;;;;5072305;28;19916;-68
2022/06/21 09:58:36;;;;;;;;;;;30.90;49.40;;;;;;5072048;28;19939;-69
2022/06/21 10:01:14;;;;;;;;;;;30.80;49.50;;;;;;5072190;28;19916;-69
2022/06/21 10:03:50;;;;;;;;;;;30.70;49.70;;;;;;5071831;28;20318;-67
2022/06/21 10:06:35;;;;;;;;;;;30.60;49.50;;;;;;5078650;28;19912;-69
2022/06/21 10:09:06;;;;;;;;;;;30.50;49.90;;;;;;5076810;28;20006;-68
2022/06/21 10:11:34;;;;;;;;;;;30.40;50.70;;;;;;5072284;28;19913;-70
2022/06/21 10:14:18;;;;;;;;;;;30.40;50.60;;;;;;5072182;28;19909;-68
2022/06/21 10:16:43;;;;;;;;;;;30.40;50.40;;;;;;5072281;28;19926;-69
2022/06/21 10:19:15;;;;;;;;;;;30.30;50.60;;;;;;5072219;28;20023;-67
2022/06/21 10:21:46;;;;;;;;;;;30.30;50.10;;;;;;5072251;28;19912;-67
2022/06/21 10:24:31;;;;;;;;;;;30.30;50.80;;;;;;5083086;28;20284;-67
2022/06/21 10:27:15;;;;;;;;;;;30.30;50.70;;;;;;5082342;28;19920;-69
2022/06/21 10:29:43;;;;;;;;;;;30.30;50.40;;;;;;5072275;28;19913;-67
2022/06/21 10:32:15;;;;;;;;;;;30.30;50.90;;;;;;5072101;28;19916;-66
2022/06/21 10:34:44;;;;;;;;;;;30.30;50.40;;;;;;5072400;28;19952;-67
2022/06/21 10:37:24;;;;;;;;;;;30.30;50.30;;;;;;5073642;28;20011;-67
2022/06/21 10:40:05;;;;;;;;;;;30.30;50.10;;;;;;5076093;28;19939;-69
2022/06/21 10:42:49;;;;;;;;;;;30.20;50.90;;;;;;5076107;28;19916;-67
2022/06/21 10:45:31;;;;;;;;;;;30.20;50.60;;;;;;5075654;28;19919;-68
2022/06/21 10:48:15;;;;;;;;;;;30.20;51.20;;;;;;5075327;28;19912;-68
2022/06/21 10:50:44;;;;;;;;;;;30.20;50.10;;;;;;5075643;28;19919;-67
2022/06/21 10:53:21;;;;;;;;;;;30.20;50.20;;;;;;5075247;28;19920;-66
2022/06/21 10:58:59;;;;;;;;;;;30.20;50.10;;;;;;5075370;28;19923;-67
2022/06/21 11:01:31;;;;;;;;;;;30.20;50.50;;;;;;5075073;28;19913;-68
2022/06/21 11:04:14;;;;;;;;;;;30.30;50.50;;;;;;5075130;28;19915;-66
2022/06/21 11:06:49;;;;;;;;;;;30.30;50.60;;;;;;5085078;28;19912;-71
2022/06/21 11:09:33;;;;;;;;;;;30.20;50.90;;;;;;5077785;28;19915;-69
2022/06/21 11:14:57;;;;;;;;;;;30.20;51.10;;;;;;5074241;28;19916;-64
2022/06/21 11:17:32;;;;;;;;;;;30.20;51.30;;;;;;5074198;28;19954;-71
2022/06/21 11:19:57;;;;;;;;;;;30.20;51.20;;;;;;5073643;28;19955;-64
2022/06/21 11:22:32;;;;;;;;;;;30.10;51.90;;;;;;5074232;28;20392;-65
2022/06/21 11:25:07;;;;;;;;;;;30.10;52.10;;;;;;5075835;28;20379;-70
2022/06/21 11:27:47;;;;;;;;;;;30.00;52.20;;;;;;5093973;28;19912;-63
2022/06/21 11:30:17;;;;;;;;;;;30.10;52.70;;;;;;5075650;28;19953;-63
2022/06/21 11:32:51;;;;;;;;;;;30.10;52.70;;;;;;5074119;28;20397;-63
2022/06/21 11:35:24;;;;;;;;;;;30.00;53.10;;;;;;5074044;28;19913;-66
2022/06/21 11:37:53;;;;;;;;;;;30.10;53.80;;;;;;5073513;28;19912;-72
2022/06/21 11:40:18;;;;;;;;;;;30.00;54.30;;;;;;5073668;28;19920;-68
2022/06/21 11:42:51;;;;;;;;;;;30.00;54.90;;;;;;5073198;28;19938;-66
2022/06/21 11:45:32;;;;;;;;;;;29.80;55.20;;;;;;5073198;28;20342;-65
2022/06/21 11:48:06;;;;;;;;;;;29.90;55.50;;;;;;5072244;28;19928;-67
2022/06/21 11:50:55;;;;;;;;;;;29.80;55.40;;;;;;5072705;28;19921;-67
2022/06/21 11:53:36;;;;;;;;;;;29.80;56.00;;;;;;5071541;28;19995;-70
2022/06/21 11:56:05;;;;;;;;;;;29.90;57.00;;;;;;5072488;28;20311;-68
2022/06/21 11:58:34;;;;;;;;;;;30.00;57.50;;;;;;5073356;28;20021;-66
2022/06/21 12:01:03;;;;;;;;;;;30.00;57.00;;;;;;5072864;28;19916;-66
2022/06/21 12:03:33;;;;;;;;;;;29.90;57.10;;;;;;5073633;28;19940;-68
2022/06/21 12:06:01;;;;;;;;;;;30.00;56.60;;;;;;5072601;28;19948;-70
2022/06/21 12:08:32;;;;;;;;;;;29.90;56.60;;;;;;5074031;28;19918;-65
2022/06/21 12:10:57;;;;;;;;;;;29.90;55.90;;;;;;5074458;28;19908;-66
2022/06/21 12:13:28;;;;;;;;;;;29.90;56.50;;;;;;5073710;28;19912;-66
2022/06/21 12:15:54;;;;;;;;;;;29.90;56.40;;;;;;5072506;28;19916;-67
2022/06/21 12:18:22;;;;;;;;;;;29.90;56.00;;;;;;5073565;28;19985;-63
2022/06/21 12:20:53;;;;;;;;;;;30.00;55.70;;;;;;5072632;28;19928;-62
2022/06/21 12:23:27;;;;;;;;;;;29.90;56.10;;;;;;5072749;28;19918;-62
2022/06/21 12:25:53;;;;;;;;;;;29.90;56.80;;;;;;5072529;28;19931;-61
2022/06/21 12:28:21;;;;;;;;;;;29.90;57.30;;;;;;5076768;28;20376;-61
2022/06/21 12:30:47;;;;;;;;;;;29.90;57.70;;;;;;5081846;28;19913;-71
2022/06/21 12:33:14;;;;;;;;;;;29.90;57.90;;;;;;5075112;28;19917;-64
2022/06/21 12:35:49;;;;;;;;;;;29.90;57.30;;;;;;5084083;28;19974;-64
2022/06/21 12:38:23;;;;;;;;;;;29.90;58.00;;;;;;5086087;28;19920;-62
2022/06/21 12:40:53;;;;;;;;;;;29.80;58.40;;;;;;5081603;28;19912;-61
2022/06/21 12:43:28;;;;;;;;;;;29.80;57.70;;;;;;5091027;28;19989;-66
2022/06/21 12:46:03;;;;;;;;;;;29.80;58.80;;;;;;5091280;28;19912;-62
2022/06/21 12:48:29;;;;;;;;;;;29.90;58.50;;;;;;5089539;28;19967;-61
2022/06/21 12:50:54;;;;;;;;;;;29.90;58.50;;;;;;5090731;28;20331;-63
2022/06/21 12:53:40;;;;;;;;;;;29.90;58.80;;;;;;5089189;28;20007;-61
2022/06/21 12:56:06;;;;;;;;;;;29.90;58.70;;;;;;5090846;28;19947;-65
2022/06/21 12:58:58;;;;;;;;;;;29.80;57.90;;;;;;5087616;28;20055;-62
2022/06/21 13:01:39;;;;;;;;;;;29.80;58.20;;;;;;5071326;28;19924;-62
2022/06/21 13:04:24;;;;;;;;;;;29.80;57.60;;;;;;5073434;28;19913;-68
2022/06/21 13:06:50;;;;;;;;;;;29.70;57.90;;;;;;5082869;28;20370;-61
2022/06/21 13:09:15;;;;;;;;;;;29.70;57.50;;;;;;5091455;28;19916;-61
2022/06/21 13:11:47;;;;;;;;;;;29.70;58.10;;;;;;5091595;28;19916;-67
2022/06/21 13:14:13;;;;;;;;;;;29.80;57.60;;;;;;5072112;28;19913;-63
2022/06/21 13:16:57;;;;;;;;;;;29.80;57.90;;;;;;5072517;28;19935;-63
2022/06/21 13:19:32;;;;;;;;;;;29.80;58.10;;;;;;5072437;28;19921;-61
2022/06/21 13:21:57;;;;;;;;;;;29.80;58.00;;;;;;5073263;28;19927;-61
2022/06/21 13:24:23;;;;;;;;;;;29.80;57.80;;;;;;5077547;28;19975;-67
2022/06/21 13:27:07;;;;;;;;;;;29.80;58.00;;;;;;5075064;28;20391;-64
2022/06/21 13:29:38;;;;;;;;;;;29.80;58.30;;;;;;5071479;28;19913;-68
2022/06/21 13:32:06;;;;;;;;;;;29.80;58.00;;;;;;5089228;28;19912;-62
2022/06/21 13:34:31;;;;;;;;;;;29.80;57.60;;;;;;5091276;28;19908;-67
2022/06/21 13:36:59;;;;;;;;;;;29.70;57.50;;;;;;5091828;28;19915;-68
2022/06/21 13:39:25;;;;;;;;;;;29.70;57.80;;;;;;5072494;28;19968;-69
2022/06/21 13:44:45;;;;;;;;;;;29.80;58.00;;;;;;5072135;28;19915;-71
2022/06/21 13:47:29;;;;;;;;;;;29.70;57.40;;;;;;5071783;28;19919;-66
2022/06/21 13:50:01;;;;;;;;;;;29.60;57.90;;;;;;5072389;28;19924;-70
2022/06/21 13:52:34;;;;;;;;;;;29.60;58.80;;;;;;5071947;28;19908;-71
2022/06/21 13:55:15;;;;;;;;;;;29.60;59.20;;;;;;5072308;28;19963;-70
2022/06/21 13:57:59;;;;;;;;;;;29.50;59.80;;;;;;5071841;28;20776;-72
2022/06/21 14:00:30;;;;;;;;;;;29.50;61.30;;;;;;5070985;28;20000;-68
2022/06/21 14:03:02;;;;;;;;;;;29.40;62.20;;;;;;5071912;28;19947;-68
2022/06/21 14:05:36;;;;;;;;;;;29.50;61.70;;;;;;5072099;28;19908;-65
2022/06/21 14:08:28;;;;;;;;;;;29.50;62.30;;;;;;5084679;28;19916;-66
2022/06/21 14:11:04;;;;;;;;;;;29.40;64.20;;;;;;5073111;28;19924;-67
2022/06/21 14:13:30;;;;;;;;;;;29.50;65.90;;;;;;5075987;28;19909;-67
2022/06/21 14:16:11;;;;;;;;;;;29.80;65.00;;;;;;5075835;28;20002;-66
2022/06/21 14:18:50;;;;;;;;;;;30.00;64.90;;;;;;5075716;28;20015;-65
2022/06/21 14:21:35;;;;;;;;;;;30.30;63.80;;;;;;5075993;28;19912;-63
2022/06/21 14:24:03;;;;;;;;;;;30.40;63.00;;;;;;5075892;28;19919;-65
2022/06/21 14:26:31;;;;;;;;;;;30.50;62.80;;;;;;5075825;28;20021;-66
2022/06/21 14:29:15;;;;;;;;;;;30.60;63.00;;;;;;5075732;28;19915;-65
2022/06/21 14:31:47;;;;;;;;;;;30.40;63.00;;;;;;5075853;28;20372;-66
2022/06/21 14:34:15;;;;;;;;;;;30.50;62.60;;;;;;5075780;28;19931;-65
2022/06/21 14:36:58;;;;;;;;;;;30.40;62.50;;;;;;5075540;28;19917;-67
2022/06/21 14:39:23;;;;;;;;;;;30.50;60.50;;;;;;5075246;28;19928;-64
2022/06/21 14:41:57;;;;;;;;;;;30.40;57.40;;;;;;5075512;28;20423;-66
2022/06/21 14:44:29;;;;;;;;;;;30.40;56.90;;;;;;5075504;28;19920;-64
2022/06/21 14:47:00;;;;;;;;;;;30.50;56.60;;;;;;5075413;28;19916;-64
2022/06/21 14:49:33;;;;;;;;;;;30.50;59.00;;;;;;5075146;28;19931;-64
2022/06/21 14:52:10;;;;;;;;;;;30.60;58.20;;;;;;5075196;28;19912;-63
2022/06/21 14:54:36;;;;;;;;;;;30.70;56.20;;;;;;5075209;28;19915;-65
2022/06/21 14:57:14;;;;;;;;;;;30.80;56.70;;;;;;5073547;28;19985;-65
2022/06/21 14:59:42;;;;;;;;;;;30.60;56.00;;;;;;5075067;28;19964;-64
2022/06/21 15:02:08;;;;;;;;;;;30.70;56.00;;;;;;5074868;28;19916;-65